sensor_id;sensor_type;location;lat;lon;timestamp;P1;durP1;ratioP1;P2;durP2;ratioP2
813;SDS011;389;48.710;9.392;2023-11-19T00:02:18;9.97;;;7.13;;
813;SDS011;389;48.710;9.392;2023-11-19T00:04:44;11.27;;;8.60;;
813;SDS011;389;48.710;9.392;2023-11-19T00:07:09;12.20;;;8.00;;
813;SDS011;389;48.710;9.392;2023-11-19T00:09:37;12.43;;;8.47;;
813;SDS011;389;48.710;9.392;2023-11-19T00:12:03;12.30;;;8.10;;
813;SDS011;389;48.710;9.392;2023-11-19T00:14:29;14.30;;;8.43;;
813;SDS011;389;48.710;9.392;2023-11-19T00:16:55;11.57;;;8.70;;
813;SDS011;389;48.710;9.392;2023-11-19T00:19:21;9.53;;;7.27;;
813;SDS011;389;48.710;9.392;2023-11-19T00:21:47;9.60;;;7.80;;
813;SDS011;389;48.710;9.392;2023-11-19T00:24:12;10.70;;;8.33;;
813;SDS011;389;48.710;9.392;2023-11-19T00:26:41;10.27;;;7.60;;
813;SDS011;389;48.710;9.392;2023-11-19T00:29:07;10.33;;;7.60;;
813;SDS011;389;48.710;9.392;2023-11-19T00:31:32;11.83;;;7.07;;
813;SDS011;389;48.710;9.392;2023-11-19T00:33:58;7.80;;;6.43;;
813;SDS011;389;48.710;9.392;2023-11-19T00:36:23;8.80;;;5.73;;
813;SDS011;389;48.710;9.392;2023-11-19T00:38:50;7.37;;;6.10;;
813;SDS011;389;48.710;9.392;2023-11-19T00:41:17;5.73;;;5.13;;
813;SDS011;389;48.710;9.392;2023-11-19T00:43:43;7.33;;;5.93;;
813;SDS011;389;48.710;9.392;2023-11-19T00:46:09;9.77;;;6.40;;
813;SDS011;389;48.710;9.392;2023-11-19T00:48:36;7.70;;;6.17;;
813;SDS011;389;48.710;9.392;2023-11-19T00:51:01;8.13;;;5.57;;
813;SDS011;389;48.710;9.392;2023-11-19T00:53:29;7.27;;;4.97;;
813;SDS011;389;48.710;9.392;2023-11-19T00:55:54;7.20;;;5.50;;
813;SDS011;389;48.710;9.392;2023-11-19T00:58:20;6.00;;;5.20;;
813;SDS011;389;48.710;9.392;2023-11-19T01:00:46;5.87;;;4.43;;
813;SDS011;389;48.710;9.392;2023-11-19T01:03:12;8.40;;;6.50;;
813;SDS011;389;48.710;9.392;2023-11-19T01:05:37;5.17;;;4.63;;
813;SDS011;389;48.710;9.392;2023-11-19T01:08:03;5.87;;;4.97;;
813;SDS011;389;48.710;9.392;2023-11-19T01:10:30;6.10;;;4.60;;
813;SDS011;389;48.710;9.392;2023-11-19T01:12:56;5.60;;;4.70;;
813;SDS011;389;48.710;9.392;2023-11-19T01:15:22;5.77;;;4.53;;
813;SDS011;389;48.710;9.392;2023-11-19T01:17:48;6.53;;;4.70;;
813;SDS011;389;48.710;9.392;2023-11-19T01:20:13;7.47;;;4.93;;
813;SDS011;389;48.710;9.392;2023-11-19T01:22:39;5.40;;;4.23;;
813;SDS011;389;48.710;9.392;2023-11-19T01:25:06;7.17;;;4.40;;
813;SDS011;389;48.710;9.392;2023-11-19T01:27:32;6.03;;;4.00;;
813;SDS011;389;48.710;9.392;2023-11-19T01:29:59;4.90;;;3.80;;
813;SDS011;389;48.710;9.392;2023-11-19T01:32:28;4.40;;;3.90;;
813;SDS011;389;48.710;9.392;2023-11-19T01:34:54;4.90;;;4.00;;
813;SDS011;389;48.710;9.392;2023-11-19T01:37:19;5.40;;;3.97;;
813;SDS011;389;48.710;9.392;2023-11-19T01:39:45;5.43;;;4.00;;
813;SDS011;389;48.710;9.392;2023-11-19T01:42:11;5.13;;;4.40;;
813;SDS011;389;48.710;9.392;2023-11-19T01:44:40;6.00;;;4.50;;
813;SDS011;389;48.710;9.392;2023-11-19T01:47:06;4.83;;;4.33;;
813;SDS011;389;48.710;9.392;2023-11-19T01:49:32;5.33;;;3.90;;
813;SDS011;389;48.710;9.392;2023-11-19T01:51:58;4.30;;;3.90;;
813;SDS011;389;48.710;9.392;2023-11-19T01:54:24;6.07;;;3.93;;
813;SDS011;389;48.710;9.392;2023-11-19T01:56:50;6.73;;;4.60;;
813;SDS011;389;48.710;9.392;2023-11-19T01:59:21;20.90;;;9.20;;
813;SDS011;389;48.710;9.392;2023-11-19T02:01:51;20.57;;;11.43;;
813;SDS011;389;48.710;9.392;2023-11-19T02:04:18;19.87;;;11.50;;
813;SDS011;389;48.710;9.392;2023-11-19T02:06:44;28.47;;;15.40;;
813;SDS011;389;48.710;9.392;2023-11-19T02:09:13;27.77;;;15.00;;
813;SDS011;389;48.710;9.392;2023-11-19T02:11:42;17.53;;;10.43;;
813;SDS011;389;48.710;9.392;2023-11-19T02:14:07;17.87;;;9.77;;
813;SDS011;389;48.710;9.392;2023-11-19T02:16:33;4.87;;;4.37;;
813;SDS011;389;48.710;9.392;2023-11-19T02:18:59;6.57;;;4.17;;
813;SDS011;389;48.710;9.392;2023-11-19T02:21:24;5.70;;;4.20;;
813;SDS011;389;48.710;9.392;2023-11-19T02:23:50;4.57;;;3.60;;
813;SDS011;389;48.710;9.392;2023-11-19T02:26:18;3.90;;;3.50;;
813;SDS011;389;48.710;9.392;2023-11-19T02:28:53;5.47;;;4.00;;
813;SDS011;389;48.710;9.392;2023-11-19T02:31:18;4.87;;;4.23;;
813;SDS011;389;48.710;9.392;2023-11-19T02:33:45;4.10;;;3.70;;
813;SDS011;389;48.710;9.392;2023-11-19T02:36:10;5.17;;;3.50;;
813;SDS011;389;48.710;9.392;2023-11-19T02:38:36;4.40;;;3.17;;
813;SDS011;389;48.710;9.392;2023-11-19T02:41:05;3.33;;;3.00;;
813;SDS011;389;48.710;9.392;2023-11-19T02:43:32;3.63;;;3.30;;
813;SDS011;389;48.710;9.392;2023-11-19T02:49:20;3.00;;;2.80;;
813;SDS011;389;48.710;9.392;2023-11-19T02:51:46;3.60;;;2.83;;
813;SDS011;389;48.710;9.392;2023-11-19T02:54:11;6.03;;;3.03;;
813;SDS011;389;48.710;9.392;2023-11-19T02:56:37;4.37;;;3.13;;
813;SDS011;389;48.710;9.392;2023-11-19T02:59:07;3.70;;;3.30;;
813;SDS011;389;48.710;9.392;2023-11-19T03:01:40;5.17;;;3.30;;
813;SDS011;389;48.710;9.392;2023-11-19T03:04:08;3.30;;;2.70;;
813;SDS011;389;48.710;9.392;2023-11-19T03:06:37;6.27;;;3.57;;
813;SDS011;389;48.710;9.392;2023-11-19T03:09:02;4.80;;;3.97;;
813;SDS011;389;48.710;9.392;2023-11-19T03:11:32;4.27;;;3.40;;
813;SDS011;389;48.710;9.392;2023-11-19T03:13:58;4.83;;;3.53;;
813;SDS011;389;48.710;9.392;2023-11-19T03:16:24;4.63;;;3.53;;
813;SDS011;389;48.710;9.392;2023-11-19T03:18:49;4.43;;;3.80;;
813;SDS011;389;48.710;9.392;2023-11-19T03:21:15;4.17;;;3.73;;
813;SDS011;389;48.710;9.392;2023-11-19T03:23:40;4.20;;;3.70;;
813;SDS011;389;48.710;9.392;2023-11-19T03:26:06;4.60;;;3.70;;
813;SDS011;389;48.710;9.392;2023-11-19T03:28:33;4.33;;;3.80;;
813;SDS011;389;48.710;9.392;2023-11-19T03:30:58;7.10;;;3.17;;
813;SDS011;389;48.710;9.392;2023-11-19T03:33:24;3.97;;;3.10;;
813;SDS011;389;48.710;9.392;2023-11-19T03:35:52;5.33;;;3.47;;
813;SDS011;389;48.710;9.392;2023-11-19T03:38:18;5.27;;;3.57;;
813;SDS011;389;48.710;9.392;2023-11-19T03:40:43;6.73;;;3.60;;
813;SDS011;389;48.710;9.392;2023-11-19T03:43:09;3.50;;;3.20;;
813;SDS011;389;48.710;9.392;2023-11-19T03:45:35;3.40;;;3.10;;
813;SDS011;389;48.710;9.392;2023-11-19T03:48:01;4.10;;;3.60;;
813;SDS011;389;48.710;9.392;2023-11-19T03:50:26;3.20;;;2.90;;
813;SDS011;389;48.710;9.392;2023-11-19T03:52:52;3.30;;;2.73;;
813;SDS011;389;48.710;9.392;2023-11-19T03:55:17;3.60;;;3.13;;
813;SDS011;389;48.710;9.392;2023-11-19T03:57:43;3.47;;;2.60;;
813;SDS011;389;48.710;9.392;2023-11-19T04:00:09;3.07;;;2.40;;
813;SDS011;389;48.710;9.392;2023-11-19T04:02:35;5.13;;;2.70;;
813;SDS011;389;48.710;9.392;2023-11-19T04:05:03;3.00;;;2.70;;
813;SDS011;389;48.710;9.392;2023-11-19T04:07:30;2.80;;;2.40;;
813;SDS011;389;48.710;9.392;2023-11-19T04:09:56;2.10;;;2.00;;
813;SDS011;389;48.710;9.392;2023-11-19T04:12:22;4.73;;;2.37;;
813;SDS011;389;48.710;9.392;2023-11-19T04:14:47;2.40;;;2.10;;
813;SDS011;389;48.710;9.392;2023-11-19T04:17:13;2.80;;;1.93;;
813;SDS011;389;48.710;9.392;2023-11-19T04:19:38;3.27;;;2.50;;
813;SDS011;389;48.710;9.392;2023-11-19T04:22:06;3.00;;;1.80;;
813;SDS011;389;48.710;9.392;2023-11-19T04:24:33;2.47;;;2.03;;
813;SDS011;389;48.710;9.392;2023-11-19T04:26:59;2.03;;;1.83;;
813;SDS011;389;48.710;9.392;2023-11-19T04:29:25;2.50;;;2.00;;
813;SDS011;389;48.710;9.392;2023-11-19T04:31:50;1.80;;;1.70;;
813;SDS011;389;48.710;9.392;2023-11-19T04:34:16;2.30;;;2.20;;
813;SDS011;389;48.710;9.392;2023-11-19T04:36:43;1.07;;;1.03;;
813;SDS011;389;48.710;9.392;2023-11-19T04:39:09;1.50;;;1.40;;
813;SDS011;389;48.710;9.392;2023-11-19T04:41:45;1.40;;;1.30;;
813;SDS011;389;48.710;9.392;2023-11-19T04:44:12;2.60;;;1.30;;
813;SDS011;389;48.710;9.392;2023-11-19T04:46:38;1.20;;;1.20;;
813;SDS011;389;48.710;9.392;2023-11-19T04:49:03;1.40;;;1.30;;
813;SDS011;389;48.710;9.392;2023-11-19T04:51:29;1.40;;;1.30;;
813;SDS011;389;48.710;9.392;2023-11-19T04:53:55;1.20;;;1.10;;
813;SDS011;389;48.710;9.392;2023-11-19T04:56:21;1.37;;;1.20;;
813;SDS011;389;48.710;9.392;2023-11-19T04:58:48;1.63;;;1.27;;
813;SDS011;389;48.710;9.392;2023-11-19T05:01:14;1.63;;;1.50;;
813;SDS011;389;48.710;9.392;2023-11-19T05:03:42;1.30;;;1.20;;
813;SDS011;389;48.710;9.392;2023-11-19T05:06:08;1.80;;;1.70;;
813;SDS011;389;48.710;9.392;2023-11-19T05:08:35;1.33;;;1.30;;
813;SDS011;389;48.710;9.392;2023-11-19T05:11:00;1.30;;;1.20;;
813;SDS011;389;48.710;9.392;2023-11-19T05:13:26;2.07;;;1.00;;
813;SDS011;389;48.710;9.392;2023-11-19T05:15:51;1.43;;;1.33;;
813;SDS011;389;48.710;9.392;2023-11-19T05:18:17;1.27;;;0.90;;
813;SDS011;389;48.710;9.392;2023-11-19T05:20:43;0.90;;;0.90;;
813;SDS011;389;48.710;9.392;2023-11-19T05:23:09;1.17;;;1.07;;
813;SDS011;389;48.710;9.392;2023-11-19T05:25:36;6.10;;;1.27;;
813;SDS011;389;48.710;9.392;2023-11-19T05:28:01;1.00;;;0.90;;
813;SDS011;389;48.710;9.392;2023-11-19T05:30:27;1.00;;;0.87;;
813;SDS011;389;48.710;9.392;2023-11-19T05:32:53;0.50;;;0.50;;
813;SDS011;389;48.710;9.392;2023-11-19T05:35:18;0.90;;;0.80;;
813;SDS011;389;48.710;9.392;2023-11-19T05:37:44;0.67;;;0.67;;
813;SDS011;389;48.710;9.392;2023-11-19T05:40:09;0.80;;;0.80;;
813;SDS011;389;48.710;9.392;2023-11-19T05:42:40;1.23;;;0.80;;
813;SDS011;389;48.710;9.392;2023-11-19T05:45:06;1.43;;;0.93;;
813;SDS011;389;48.710;9.392;2023-11-19T05:47:33;0.97;;;0.83;;
813;SDS011;389;48.710;9.392;2023-11-19T05:49:58;1.13;;;0.70;;
813;SDS011;389;48.710;9.392;2023-11-19T05:52:24;2.40;;;0.80;;
813;SDS011;389;48.710;9.392;2023-11-19T05:54:49;0.50;;;0.50;;
813;SDS011;389;48.710;9.392;2023-11-19T05:57:17;1.13;;;0.60;;
813;SDS011;389;48.710;9.392;2023-11-19T05:59:48;0.60;;;0.60;;
813;SDS011;389;48.710;9.392;2023-11-19T06:02:14;0.90;;;0.80;;
813;SDS011;389;48.710;9.392;2023-11-19T06:04:40;0.97;;;0.60;;
813;SDS011;389;48.710;9.392;2023-11-19T06:07:08;1.73;;;0.77;;
813;SDS011;389;48.710;9.392;2023-11-19T06:09:34;0.70;;;0.70;;
813;SDS011;389;48.710;9.392;2023-11-19T06:12:00;0.70;;;0.60;;
813;SDS011;389;48.710;9.392;2023-11-19T06:14:27;0.50;;;0.50;;
813;SDS011;389;48.710;9.392;2023-11-19T06:16:52;1.70;;;0.57;;
813;SDS011;389;48.710;9.392;2023-11-19T06:19:18;0.50;;;0.50;;
813;SDS011;389;48.710;9.392;2023-11-19T06:21:43;0.50;;;0.50;;
813;SDS011;389;48.710;9.392;2023-11-19T06:24:09;0.70;;;0.60;;
813;SDS011;389;48.710;9.392;2023-11-19T06:26:35;0.60;;;0.50;;
813;SDS011;389;48.710;9.392;2023-11-19T06:29:00;0.60;;;0.53;;
813;SDS011;389;48.710;9.392;2023-11-19T06:31:26;0.50;;;0.50;;
813;SDS011;389;48.710;9.392;2023-11-19T06:33:51;0.83;;;0.60;;
813;SDS011;389;48.710;9.392;2023-11-19T06:36:17;2.83;;;0.60;;
813;SDS011;389;48.710;9.392;2023-11-19T06:38:43;0.60;;;0.60;;
813;SDS011;389;48.710;9.392;2023-11-19T06:41:08;0.93;;;0.60;;
813;SDS011;389;48.710;9.392;2023-11-19T06:43:34;0.80;;;0.50;;
813;SDS011;389;48.710;9.392;2023-11-19T06:46:01;1.83;;;0.40;;
813;SDS011;389;48.710;9.392;2023-11-19T06:48:27;0.80;;;0.50;;
813;SDS011;389;48.710;9.392;2023-11-19T06:50:52;0.57;;;0.50;;
813;SDS011;389;48.710;9.392;2023-11-19T06:53:18;0.90;;;0.70;;
813;SDS011;389;48.710;9.392;2023-11-19T06:55:44;0.80;;;0.60;;
813;SDS011;389;48.710;9.392;2023-11-19T06:58:09;0.60;;;0.60;;
813;SDS011;389;48.710;9.392;2023-11-19T07:00:35;0.60;;;0.60;;
813;SDS011;389;48.710;9.392;2023-11-19T07:03:01;0.50;;;0.50;;
813;SDS011;389;48.710;9.392;2023-11-19T07:05:26;0.67;;;0.67;;
813;SDS011;389;48.710;9.392;2023-11-19T07:07:53;1.03;;;0.80;;
813;SDS011;389;48.710;9.392;2023-11-19T07:10:19;3.90;;;0.70;;
813;SDS011;389;48.710;9.392;2023-11-19T07:12:45;1.90;;;1.50;;
813;SDS011;389;48.710;9.392;2023-11-19T07:15:10;0.70;;;0.70;;
813;SDS011;389;48.710;9.392;2023-11-19T07:17:38;1.53;;;1.43;;
813;SDS011;389;48.710;9.392;2023-11-19T07:20:05;1.13;;;1.00;;
813;SDS011;389;48.710;9.392;2023-11-19T07:22:31;1.10;;;1.00;;
813;SDS011;389;48.710;9.392;2023-11-19T07:24:56;1.63;;;0.50;;
813;SDS011;389;48.710;9.392;2023-11-19T07:27:22;2.37;;;2.27;;
813;SDS011;389;48.710;9.392;2023-11-19T07:29:49;3.53;;;1.90;;
813;SDS011;389;48.710;9.392;2023-11-19T07:32:14;1.47;;;0.90;;
813;SDS011;389;48.710;9.392;2023-11-19T07:34:40;1.67;;;1.57;;
813;SDS011;389;48.710;9.392;2023-11-19T07:37:06;1.43;;;1.33;;
813;SDS011;389;48.710;9.392;2023-11-19T07:39:32;2.00;;;1.00;;
813;SDS011;389;48.710;9.392;2023-11-19T07:41:57;1.00;;;0.90;;
813;SDS011;389;48.710;9.392;2023-11-19T07:44:23;0.63;;;0.63;;
813;SDS011;389;48.710;9.392;2023-11-19T07:46:49;0.87;;;0.70;;
813;SDS011;389;48.710;9.392;2023-11-19T07:49:15;0.60;;;0.60;;
813;SDS011;389;48.710;9.392;2023-11-19T07:51:40;0.73;;;0.50;;
813;SDS011;389;48.710;9.392;2023-11-19T07:54:06;0.50;;;0.50;;
813;SDS011;389;48.710;9.392;2023-11-19T07:56:32;0.60;;;0.60;;
813;SDS011;389;48.710;9.392;2023-11-19T07:59:00;2.23;;;0.80;;
813;SDS011;389;48.710;9.392;2023-11-19T08:01:26;1.13;;;0.87;;
813;SDS011;389;48.710;9.392;2023-11-19T08:03:52;1.00;;;0.90;;
813;SDS011;389;48.710;9.392;2023-11-19T08:06:17;0.70;;;0.70;;
813;SDS011;389;48.710;9.392;2023-11-19T08:08:43;0.80;;;0.80;;
813;SDS011;389;48.710;9.392;2023-11-19T08:11:10;0.50;;;0.50;;
813;SDS011;389;48.710;9.392;2023-11-19T08:13:35;0.90;;;0.90;;
813;SDS011;389;48.710;9.392;2023-11-19T08:16:01;1.20;;;1.17;;
813;SDS011;389;48.710;9.392;2023-11-19T08:18:26;1.10;;;1.00;;
813;SDS011;389;48.710;9.392;2023-11-19T08:20:52;0.73;;;0.70;;
813;SDS011;389;48.710;9.392;2023-11-19T08:23:19;0.70;;;0.70;;
813;SDS011;389;48.710;9.392;2023-11-19T08:25:45;1.53;;;0.70;;
813;SDS011;389;48.710;9.392;2023-11-19T08:28:11;1.13;;;0.60;;
813;SDS011;389;48.710;9.392;2023-11-19T08:30:36;0.70;;;0.70;;
813;SDS011;389;48.710;9.392;2023-11-19T08:33:02;1.23;;;0.70;;
813;SDS011;389;48.710;9.392;2023-11-19T08:35:28;0.50;;;0.50;;
813;SDS011;389;48.710;9.392;2023-11-19T08:37:55;0.70;;;0.60;;
813;SDS011;389;48.710;9.392;2023-11-19T08:40:20;2.67;;;0.67;;
813;SDS011;389;48.710;9.392;2023-11-19T08:42:46;1.27;;;0.70;;
813;SDS011;389;48.710;9.392;2023-11-19T08:45:11;2.13;;;0.77;;
813;SDS011;389;48.710;9.392;2023-11-19T08:50:05;3.00;;;2.57;;
813;SDS011;389;48.710;9.392;2023-11-19T08:52:31;8.07;;;5.10;;
813;SDS011;389;48.710;9.392;2023-11-19T08:54:57;2.33;;;1.30;;
813;SDS011;389;48.710;9.392;2023-11-19T08:57:22;3.73;;;3.20;;
813;SDS011;389;48.710;9.392;2023-11-19T08:59:48;1.03;;;1.03;;
813;SDS011;389;48.710;9.392;2023-11-19T09:02:13;1.13;;;1.00;;
813;SDS011;389;48.710;9.392;2023-11-19T09:04:39;1.27;;;1.27;;
813;SDS011;389;48.710;9.392;2023-11-19T09:07:05;1.30;;;1.20;;
813;SDS011;389;48.710;9.392;2023-11-19T09:09:31;2.67;;;1.67;;
813;SDS011;389;48.710;9.392;2023-11-19T09:12:00;0.90;;;0.90;;
813;SDS011;389;48.710;9.392;2023-11-19T09:14:26;0.70;;;0.70;;
813;SDS011;389;48.710;9.392;2023-11-19T09:16:52;7.57;;;6.23;;
813;SDS011;389;48.710;9.392;2023-11-19T09:19:18;1.50;;;1.40;;
813;SDS011;389;48.710;9.392;2023-11-19T09:21:43;4.47;;;4.07;;
813;SDS011;389;48.710;9.392;2023-11-19T09:24:09;1.20;;;1.10;;
813;SDS011;389;48.710;9.392;2023-11-19T09:26:34;1.50;;;1.40;;
813;SDS011;389;48.710;9.392;2023-11-19T09:29:01;1.47;;;1.37;;
813;SDS011;389;48.710;9.392;2023-11-19T09:31:27;1.03;;;0.87;;
813;SDS011;389;48.710;9.392;2023-11-19T09:33:52;1.67;;;1.57;;
813;SDS011;389;48.710;9.392;2023-11-19T09:36:18;2.40;;;2.20;;
813;SDS011;389;48.710;9.392;2023-11-19T09:38:44;2.57;;;2.37;;
813;SDS011;389;48.710;9.392;2023-11-19T09:41:10;1.67;;;1.57;;
813;SDS011;389;48.710;9.392;2023-11-19T09:43:41;4.53;;;4.23;;
813;SDS011;389;48.710;9.392;2023-11-19T09:46:10;2.70;;;1.77;;
813;SDS011;389;48.710;9.392;2023-11-19T09:48:40;1.00;;;0.90;;
813;SDS011;389;48.710;9.392;2023-11-19T09:51:07;1.73;;;0.80;;
813;SDS011;389;48.710;9.392;2023-11-19T09:53:33;0.87;;;0.87;;
813;SDS011;389;48.710;9.392;2023-11-19T09:56:01;1.87;;;1.20;;
813;SDS011;389;48.710;9.392;2023-11-19T09:58:30;1.43;;;1.33;;
813;SDS011;389;48.710;9.392;2023-11-19T10:00:57;0.80;;;0.80;;
813;SDS011;389;48.710;9.392;2023-11-19T10:03:24;0.60;;;0.60;;
813;SDS011;389;48.710;9.392;2023-11-19T10:05:52;0.90;;;0.90;;
813;SDS011;389;48.710;9.392;2023-11-19T10:08:19;1.50;;;0.50;;
813;SDS011;389;48.710;9.392;2023-11-19T10:10:45;0.80;;;0.80;;
813;SDS011;389;48.710;9.392;2023-11-19T10:13:10;1.00;;;0.90;;
813;SDS011;389;48.710;9.392;2023-11-19T10:15:36;1.23;;;0.60;;
813;SDS011;389;48.710;9.392;2023-11-19T10:18:02;0.60;;;0.60;;
813;SDS011;389;48.710;9.392;2023-11-19T10:20:37;0.60;;;0.60;;
813;SDS011;389;48.710;9.392;2023-11-19T10:23:05;0.90;;;0.70;;
813;SDS011;389;48.710;9.392;2023-11-19T10:25:31;0.70;;;0.70;;
813;SDS011;389;48.710;9.392;2023-11-19T10:27:58;1.13;;;0.80;;
813;SDS011;389;48.710;9.392;2023-11-19T10:30:24;0.80;;;0.80;;
813;SDS011;389;48.710;9.392;2023-11-19T10:33:10;0.90;;;0.70;;
813;SDS011;389;48.710;9.392;2023-11-19T10:35:54;0.70;;;0.70;;
813;SDS011;389;48.710;9.392;2023-11-19T10:38:27;0.77;;;0.63;;
813;SDS011;389;48.710;9.392;2023-11-19T10:40:52;1.30;;;0.73;;
813;SDS011;389;48.710;9.392;2023-11-19T10:43:19;0.67;;;0.63;;
813;SDS011;389;48.710;9.392;2023-11-19T10:45:49;1.50;;;0.80;;
813;SDS011;389;48.710;9.392;2023-11-19T10:48:15;1.00;;;1.00;;
813;SDS011;389;48.710;9.392;2023-11-19T10:50:41;0.80;;;0.60;;
813;SDS011;389;48.710;9.392;2023-11-19T10:53:09;1.07;;;0.90;;
813;SDS011;389;48.710;9.392;2023-11-19T10:55:38;1.00;;;0.70;;
813;SDS011;389;48.710;9.392;2023-11-19T10:58:04;0.90;;;0.90;;
813;SDS011;389;48.710;9.392;2023-11-19T11:00:44;1.33;;;1.23;;
813;SDS011;389;48.710;9.392;2023-11-19T11:03:19;0.77;;;0.70;;
813;SDS011;389;48.710;9.392;2023-11-19T11:05:46;1.27;;;0.60;;
813;SDS011;389;48.710;9.392;2023-11-19T11:08:12;2.60;;;1.10;;
813;SDS011;389;48.710;9.392;2023-11-19T11:11:00;2.23;;;1.20;;
813;SDS011;389;48.710;9.392;2023-11-19T11:13:25;15.27;;;7.70;;
813;SDS011;389;48.710;9.392;2023-11-19T11:15:55;12.30;;;5.90;;
813;SDS011;389;48.710;9.392;2023-11-19T11:18:23;18.37;;;8.90;;
813;SDS011;389;48.710;9.392;2023-11-19T11:20:51;6.50;;;2.13;;
813;SDS011;389;48.710;9.392;2023-11-19T11:28:57;0.70;;;0.70;;
813;SDS011;389;48.710;9.392;2023-11-19T11:39:46;0.73;;;0.70;;
813;SDS011;389;48.710;9.392;2023-11-19T11:50:17;0.60;;;0.60;;
813;SDS011;389;48.710;9.392;2023-11-19T11:57:53;0.73;;;0.73;;
813;SDS011;389;48.710;9.392;2023-11-19T12:00:26;1.10;;;1.00;;
813;SDS011;389;48.710;9.392;2023-11-19T12:03:00;2.27;;;1.00;;
813;SDS011;389;48.710;9.392;2023-11-19T12:05:27;1.20;;;1.00;;
813;SDS011;389;48.710;9.392;2023-11-19T12:07:54;0.90;;;0.80;;
813;SDS011;389;48.710;9.392;2023-11-19T12:10:20;1.57;;;0.87;;
813;SDS011;389;48.710;9.392;2023-11-19T12:12:47;1.23;;;0.90;;
813;SDS011;389;48.710;9.392;2023-11-19T12:15:12;1.30;;;0.70;;
813;SDS011;389;48.710;9.392;2023-11-19T12:17:49;1.20;;;0.73;;
813;SDS011;389;48.710;9.392;2023-11-19T12:20:16;0.80;;;0.60;;
813;SDS011;389;48.710;9.392;2023-11-19T12:22:45;1.03;;;0.87;;
813;SDS011;389;48.710;9.392;2023-11-19T12:25:11;1.60;;;0.80;;
813;SDS011;389;48.710;9.392;2023-11-19T12:27:41;1.27;;;0.70;;
813;SDS011;389;48.710;9.392;2023-11-19T12:43:09;1.63;;;0.70;;
813;SDS011;389;48.710;9.392;2023-11-19T13:02:44;1.57;;;0.60;;
813;SDS011;389;48.710;9.392;2023-11-19T13:05:27;1.57;;;0.60;;
813;SDS011;389;48.710;9.392;2023-11-19T13:07:59;0.80;;;0.60;;
813;SDS011;389;48.710;9.392;2023-11-19T13:16:39;1.43;;;1.33;;
813;SDS011;389;48.710;9.392;2023-11-19T13:19:33;1.23;;;1.10;;
813;SDS011;389;48.710;9.392;2023-11-19T13:22:27;1.10;;;0.93;;
813;SDS011;389;48.710;9.392;2023-11-19T13:25:23;0.60;;;0.60;;
813;SDS011;389;48.710;9.392;2023-11-19T13:27:53;1.23;;;0.80;;
813;SDS011;389;48.710;9.392;2023-11-19T13:30:28;0.90;;;0.77;;
813;SDS011;389;48.710;9.392;2023-11-19T13:33:32;1.00;;;1.00;;
813;SDS011;389;48.710;9.392;2023-11-19T13:36:01;1.00;;;0.90;;
813;SDS011;389;48.710;9.392;2023-11-19T13:38:36;0.90;;;0.80;;
813;SDS011;389;48.710;9.392;2023-11-19T13:43:54;2.47;;;2.03;;
813;SDS011;389;48.710;9.392;2023-11-19T13:46:49;2.03;;;1.23;;
813;SDS011;389;48.710;9.392;2023-11-19T13:49:20;1.20;;;0.90;;
813;SDS011;389;48.710;9.392;2023-11-19T13:52:15;0.90;;;0.60;;
813;SDS011;389;48.710;9.392;2023-11-19T13:54:40;1.10;;;0.93;;
813;SDS011;389;48.710;9.392;2023-11-19T13:57:06;1.00;;;0.90;;
813;SDS011;389;48.710;9.392;2023-11-19T13:59:31;2.20;;;0.70;;
813;SDS011;389;48.710;9.392;2023-11-19T14:01:59;0.90;;;0.70;;
813;SDS011;389;48.710;9.392;2023-11-19T14:04:25;2.27;;;1.47;;
813;SDS011;389;48.710;9.392;2023-11-19T14:06:51;1.00;;;0.97;;
813;SDS011;389;48.710;9.392;2023-11-19T14:09:17;0.97;;;0.80;;
813;SDS011;389;48.710;9.392;2023-11-19T14:11:43;0.93;;;0.87;;
813;SDS011;389;48.710;9.392;2023-11-19T14:14:09;0.60;;;0.60;;
813;SDS011;389;48.710;9.392;2023-11-19T14:16:34;0.70;;;0.70;;
813;SDS011;389;48.710;9.392;2023-11-19T14:19:00;0.53;;;0.53;;
813;SDS011;389;48.710;9.392;2023-11-19T14:21:26;0.60;;;0.60;;
813;SDS011;389;48.710;9.392;2023-11-19T14:23:52;1.60;;;0.73;;
813;SDS011;389;48.710;9.392;2023-11-19T14:26:18;1.77;;;0.83;;
813;SDS011;389;48.710;9.392;2023-11-19T14:28:43;2.63;;;2.37;;
813;SDS011;389;48.710;9.392;2023-11-19T14:31:09;2.50;;;1.00;;
813;SDS011;389;48.710;9.392;2023-11-19T14:33:34;1.37;;;1.17;;
813;SDS011;389;48.710;9.392;2023-11-19T14:36:01;0.80;;;0.80;;
813;SDS011;389;48.710;9.392;2023-11-19T14:38:27;2.00;;;1.00;;
813;SDS011;389;48.710;9.392;2023-11-19T14:40:52;1.43;;;0.70;;
813;SDS011;389;48.710;9.392;2023-11-19T14:43:19;0.80;;;0.80;;
813;SDS011;389;48.710;9.392;2023-11-19T14:45:45;1.13;;;0.90;;
813;SDS011;389;48.710;9.392;2023-11-19T14:48:10;1.73;;;0.80;;
813;SDS011;389;48.710;9.392;2023-11-19T14:50:36;1.23;;;1.03;;
813;SDS011;389;48.710;9.392;2023-11-19T14:53:02;2.77;;;2.30;;
813;SDS011;389;48.710;9.392;2023-11-19T14:55:28;4.60;;;2.43;;
813;SDS011;389;48.710;9.392;2023-11-19T14:57:53;3.60;;;2.90;;
813;SDS011;389;48.710;9.392;2023-11-19T15:00:19;2.00;;;1.50;;
813;SDS011;389;48.710;9.392;2023-11-19T15:02:46;5.77;;;3.70;;
813;SDS011;389;48.710;9.392;2023-11-19T15:05:12;2.53;;;2.33;;
813;SDS011;389;48.710;9.392;2023-11-19T15:07:38;1.40;;;1.10;;
813;SDS011;389;48.710;9.392;2023-11-19T15:10:05;1.77;;;1.03;;
813;SDS011;389;48.710;9.392;2023-11-19T15:12:38;1.07;;;0.97;;
813;SDS011;389;48.710;9.392;2023-11-19T15:15:07;1.10;;;1.00;;
813;SDS011;389;48.710;9.392;2023-11-19T15:17:34;0.80;;;0.80;;
813;SDS011;389;48.710;9.392;2023-11-19T15:20:01;2.00;;;0.87;;
813;SDS011;389;48.710;9.392;2023-11-19T15:22:28;0.83;;;0.83;;
813;SDS011;389;48.710;9.392;2023-11-19T15:24:54;1.30;;;1.10;;
813;SDS011;389;48.710;9.392;2023-11-19T15:27:19;1.40;;;1.30;;
813;SDS011;389;48.710;9.392;2023-11-19T15:29:45;1.70;;;0.70;;
813;SDS011;389;48.710;9.392;2023-11-19T15:32:11;1.07;;;1.00;;
813;SDS011;389;48.710;9.392;2023-11-19T15:34:37;0.90;;;0.90;;
813;SDS011;389;48.710;9.392;2023-11-19T15:37:04;1.87;;;1.67;;
813;SDS011;389;48.710;9.392;2023-11-19T15:39:30;1.17;;;0.93;;
813;SDS011;389;48.710;9.392;2023-11-19T15:41:57;1.93;;;1.47;;
813;SDS011;389;48.710;9.392;2023-11-19T15:44:24;0.97;;;0.97;;
813;SDS011;389;48.710;9.392;2023-11-19T15:46:50;1.60;;;1.07;;
813;SDS011;389;48.710;9.392;2023-11-19T15:49:15;1.97;;;1.40;;
813;SDS011;389;48.710;9.392;2023-11-19T15:51:41;1.33;;;1.20;;
813;SDS011;389;48.710;9.392;2023-11-19T15:54:07;1.00;;;0.90;;
813;SDS011;389;48.710;9.392;2023-11-19T15:56:33;1.53;;;1.20;;
813;SDS011;389;48.710;9.392;2023-11-19T15:58:58;1.70;;;1.60;;
813;SDS011;389;48.710;9.392;2023-11-19T16:01:24;1.00;;;0.90;;
813;SDS011;389;48.710;9.392;2023-11-19T16:03:50;1.23;;;0.70;;
813;SDS011;389;48.710;9.392;2023-11-19T16:06:16;1.77;;;1.30;;
813;SDS011;389;48.710;9.392;2023-11-19T16:08:43;1.50;;;1.40;;
813;SDS011;389;48.710;9.392;2023-11-19T16:11:09;1.23;;;0.90;;
813;SDS011;389;48.710;9.392;2023-11-19T16:13:35;1.77;;;1.67;;
813;SDS011;389;48.710;9.392;2023-11-19T16:16:00;4.60;;;4.13;;
813;SDS011;389;48.710;9.392;2023-11-19T16:18:26;8.97;;;8.07;;
813;SDS011;389;48.710;9.392;2023-11-19T16:20:53;3.67;;;3.40;;
813;SDS011;389;48.710;9.392;2023-11-19T16:23:19;4.00;;;2.30;;
813;SDS011;389;48.710;9.392;2023-11-19T16:25:45;2.03;;;1.80;;
813;SDS011;389;48.710;9.392;2023-11-19T16:28:11;6.73;;;6.23;;
813;SDS011;389;48.710;9.392;2023-11-19T16:30:36;6.60;;;6.00;;
813;SDS011;389;48.710;9.392;2023-11-19T16:33:02;5.00;;;3.00;;
813;SDS011;389;48.710;9.392;2023-11-19T16:35:28;4.30;;;3.73;;
813;SDS011;389;48.710;9.392;2023-11-19T16:37:54;4.40;;;3.27;;
813;SDS011;389;48.710;9.392;2023-11-19T16:40:20;3.50;;;3.20;;
813;SDS011;389;48.710;9.392;2023-11-19T16:42:45;4.83;;;4.40;;
813;SDS011;389;48.710;9.392;2023-11-19T16:45:11;3.70;;;3.40;;
813;SDS011;389;48.710;9.392;2023-11-19T16:47:37;2.67;;;2.43;;
813;SDS011;389;48.710;9.392;2023-11-19T16:50:03;4.67;;;4.13;;
813;SDS011;389;48.710;9.392;2023-11-19T16:52:29;3.83;;;3.53;;
813;SDS011;389;48.710;9.392;2023-11-19T16:54:57;8.10;;;7.30;;
813;SDS011;389;48.710;9.392;2023-11-19T16:57:22;4.57;;;4.00;;